sensor_id;sensor_type;location;lat;lon;timestamp;P1;durP1;ratioP1;P2;durP2;ratioP2
13356;SDS011;6747;56.456;-3.120;2024-03-08T00:01:30;7.80;;;4.82;;
13356;SDS011;6747;56.456;-3.120;2024-03-08T00:03:58;10.73;;;4.80;;
13356;SDS011;6747;56.456;-3.120;2024-03-08T00:06:25;6.70;;;4.03;;
13356;SDS011;6747;56.456;-3.120;2024-03-08T00:08:54;5.65;;;4.35;;
13356;SDS011;6747;56.456;-3.120;2024-03-08T00:11:21;10.65;;;4.35;;
13356;SDS011;6747;56.456;-3.120;2024-03-08T00:13:51;6.88;;;4.32;;
13356;SDS011;6747;56.456;-3.120;2024-03-08T00:16:18;6.65;;;4.05;;
13356;SDS011;6747;56.456;-3.120;2024-03-08T00:18:48;7.35;;;4.30;;
13356;SDS011;6747;56.456;-3.120;2024-03-08T00:21:15;5.53;;;3.75;;
13356;SDS011;6747;56.456;-3.120;2024-03-08T00:23:43;4.10;;;3.70;;
13356;SDS011;6747;56.456;-3.120;2024-03-08T00:26:12;6.30;;;4.25;;
13356;SDS011;6747;56.456;-3.120;2024-03-08T00:28:39;4.53;;;3.97;;
13356;SDS011;6747;56.456;-3.120;2024-03-08T00:31:07;11.50;;;5.00;;
13356;SDS011;6747;56.456;-3.120;2024-03-08T00:33:37;8.73;;;5.00;;
13356;SDS011;6747;56.456;-3.120;2024-03-08T00:36:05;7.18;;;4.57;;
13356;SDS011;6747;56.456;-3.120;2024-03-08T00:38:32;6.72;;;4.38;;
13356;SDS011;6747;56.456;-3.120;2024-03-08T00:41:02;6.05;;;4.18;;
13356;SDS011;6747;56.456;-3.120;2024-03-08T00:43:31;6.63;;;4.35;;
13356;SDS011;6747;56.456;-3.120;2024-03-08T00:45:59;7.38;;;4.10;;
13356;SDS011;6747;56.456;-3.120;2024-03-08T00:48:27;6.10;;;3.65;;
13356;SDS011;6747;56.456;-3.120;2024-03-08T00:50:56;7.47;;;4.03;;
13356;SDS011;6747;56.456;-3.120;2024-03-08T00:53:23;3.60;;;3.20;;
13356;SDS011;6747;56.456;-3.120;2024-03-08T00:55:51;4.13;;;3.30;;
13356;SDS011;6747;56.456;-3.120;2024-03-08T00:58:20;4.65;;;3.85;;
13356;SDS011;6747;56.456;-3.120;2024-03-08T01:00:50;4.53;;;3.20;;
13356;SDS011;6747;56.456;-3.120;2024-03-08T01:03:18;3.90;;;3.50;;
13356;SDS011;6747;56.456;-3.120;2024-03-08T01:05:45;7.53;;;3.22;;
13356;SDS011;6747;56.456;-3.120;2024-03-08T01:08:13;3.78;;;3.47;;
13356;SDS011;6747;56.456;-3.120;2024-03-08T01:10:40;3.33;;;3.03;;
13356;SDS011;6747;56.456;-3.120;2024-03-08T01:13:07;3.75;;;3.42;;
13356;SDS011;6747;56.456;-3.120;2024-03-08T01:15:35;4.97;;;4.07;;
13356;SDS011;6747;56.456;-3.120;2024-03-08T01:18:08;8.63;;;4.10;;
13356;SDS011;6747;56.456;-3.120;2024-03-08T01:20:35;8.40;;;4.32;;
13356;SDS011;6747;56.456;-3.120;2024-03-08T01:23:03;6.53;;;4.40;;
13356;SDS011;6747;56.456;-3.120;2024-03-08T01:25:32;7.90;;;4.70;;
13356;SDS011;6747;56.456;-3.120;2024-03-08T01:27:59;7.65;;;4.80;;
13356;SDS011;6747;56.456;-3.120;2024-03-08T01:30:27;9.95;;;4.65;;
13356;SDS011;6747;56.456;-3.120;2024-03-08T01:32:55;9.82;;;4.95;;
13356;SDS011;6747;56.456;-3.120;2024-03-08T01:35:23;10.32;;;5.05;;
13356;SDS011;6747;56.456;-3.120;2024-03-08T01:37:52;9.70;;;5.35;;
13356;SDS011;6747;56.456;-3.120;2024-03-08T01:40:19;7.38;;;4.93;;
13356;SDS011;6747;56.456;-3.120;2024-03-08T01:42:47;6.70;;;4.90;;
13356;SDS011;6747;56.456;-3.120;2024-03-08T01:45:15;8.50;;;5.20;;
13356;SDS011;6747;56.456;-3.120;2024-03-08T01:47:42;6.25;;;4.78;;
13356;SDS011;6747;56.456;-3.120;2024-03-08T01:50:13;5.75;;;4.72;;
13356;SDS011;6747;56.456;-3.120;2024-03-08T01:52:42;8.70;;;4.78;;
13356;SDS011;6747;56.456;-3.120;2024-03-08T01:55:10;6.35;;;4.47;;
13356;SDS011;6747;56.456;-3.120;2024-03-08T01:57:39;7.28;;;4.50;;
13356;SDS011;6747;56.456;-3.120;2024-03-08T02:00:07;5.60;;;4.22;;
13356;SDS011;6747;56.456;-3.120;2024-03-08T02:02:36;6.55;;;4.70;;
13356;SDS011;6747;56.456;-3.120;2024-03-08T02:05:05;10.43;;;5.00;;
13356;SDS011;6747;56.456;-3.120;2024-03-08T02:07:33;6.18;;;4.85;;
13356;SDS011;6747;56.456;-3.120;2024-03-08T02:10:03;7.32;;;4.88;;
13356;SDS011;6747;56.456;-3.120;2024-03-08T02:12:31;8.35;;;5.07;;
13356;SDS011;6747;56.456;-3.120;2024-03-08T02:14:59;8.50;;;4.63;;
13356;SDS011;6747;56.456;-3.120;2024-03-08T02:17:26;7.13;;;4.82;;
13356;SDS011;6747;56.456;-3.120;2024-03-08T02:19:55;8.38;;;4.40;;
13356;SDS011;6747;56.456;-3.120;2024-03-08T02:22:24;9.23;;;5.50;;
13356;SDS011;6747;56.456;-3.120;2024-03-08T02:24:52;9.43;;;5.30;;
13356;SDS011;6747;56.456;-3.120;2024-03-08T02:27:23;8.80;;;5.15;;
13356;SDS011;6747;56.456;-3.120;2024-03-08T02:29:50;9.75;;;5.57;;
13356;SDS011;6747;56.456;-3.120;2024-03-08T02:32:20;10.43;;;5.80;;
13356;SDS011;6747;56.456;-3.120;2024-03-08T02:34:48;7.05;;;5.30;;
13356;SDS011;6747;56.456;-3.120;2024-03-08T02:37:16;8.32;;;5.78;;
13356;SDS011;6747;56.456;-3.120;2024-03-08T02:39:45;8.13;;;5.15;;
13356;SDS011;6747;56.456;-3.120;2024-03-08T02:42:13;8.90;;;4.88;;
13356;SDS011;6747;56.456;-3.120;2024-03-08T02:44:42;8.05;;;5.13;;
13356;SDS011;6747;56.456;-3.120;2024-03-08T02:47:10;6.93;;;4.70;;
13356;SDS011;6747;56.456;-3.120;2024-03-08T02:49:37;7.93;;;5.05;;
13356;SDS011;6747;56.456;-3.120;2024-03-08T02:52:05;8.77;;;4.70;;
13356;SDS011;6747;56.456;-3.120;2024-03-08T02:54:33;8.55;;;4.95;;
13356;SDS011;6747;56.456;-3.120;2024-03-08T02:57:03;6.78;;;4.88;;
13356;SDS011;6747;56.456;-3.120;2024-03-08T02:59:32;6.47;;;4.47;;
13356;SDS011;6747;56.456;-3.120;2024-03-08T03:02:00;6.50;;;4.70;;
13356;SDS011;6747;56.456;-3.120;2024-03-08T03:04:28;6.45;;;4.63;;
13356;SDS011;6747;56.456;-3.120;2024-03-08T03:06:55;9.48;;;4.68;;
13356;SDS011;6747;56.456;-3.120;2024-03-08T03:09:23;6.80;;;4.72;;
13356;SDS011;6747;56.456;-3.120;2024-03-08T03:11:52;6.68;;;4.63;;
13356;SDS011;6747;56.456;-3.120;2024-03-08T03:14:22;9.27;;;4.57;;
13356;SDS011;6747;56.456;-3.120;2024-03-08T03:16:52;6.72;;;4.40;;
13356;SDS011;6747;56.456;-3.120;2024-03-08T03:19:19;9.75;;;5.03;;
13356;SDS011;6747;56.456;-3.120;2024-03-08T03:21:46;8.30;;;4.65;;
13356;SDS011;6747;56.456;-3.120;2024-03-08T03:24:14;12.93;;;4.80;;
13356;SDS011;6747;56.456;-3.120;2024-03-08T03:26:41;10.05;;;5.03;;
13356;SDS011;6747;56.456;-3.120;2024-03-08T03:29:09;7.88;;;5.07;;
13356;SDS011;6747;56.456;-3.120;2024-03-08T03:31:38;6.20;;;4.65;;
13356;SDS011;6747;56.456;-3.120;2024-03-08T03:34:06;10.35;;;4.93;;
13356;SDS011;6747;56.456;-3.120;2024-03-08T03:36:34;8.35;;;4.47;;
13356;SDS011;6747;56.456;-3.120;2024-03-08T03:39:03;7.15;;;4.18;;
13356;SDS011;6747;56.456;-3.120;2024-03-08T03:41:36;7.05;;;4.38;;
13356;SDS011;6747;56.456;-3.120;2024-03-08T03:44:03;8.95;;;4.63;;
13356;SDS011;6747;56.456;-3.120;2024-03-08T03:46:32;6.05;;;4.38;;
13356;SDS011;6747;56.456;-3.120;2024-03-08T03:49:01;6.93;;;4.22;;
13356;SDS011;6747;56.456;-3.120;2024-03-08T03:51:28;8.27;;;4.20;;
13356;SDS011;6747;56.456;-3.120;2024-03-08T03:53:56;7.47;;;3.90;;
13356;SDS011;6747;56.456;-3.120;2024-03-08T03:56:25;6.90;;;3.92;;
13356;SDS011;6747;56.456;-3.120;2024-03-08T03:58:53;5.57;;;4.00;;
13356;SDS011;6747;56.456;-3.120;2024-03-08T04:01:20;5.63;;;3.63;;
13356;SDS011;6747;56.456;-3.120;2024-03-08T04:03:48;4.95;;;4.07;;
13356;SDS011;6747;56.456;-3.120;2024-03-08T04:06:17;9.20;;;4.50;;
13356;SDS011;6747;56.456;-3.120;2024-03-08T04:08:45;5.47;;;4.00;;
13356;SDS011;6747;56.456;-3.120;2024-03-08T04:11:13;9.75;;;4.28;;
13356;SDS011;6747;56.456;-3.120;2024-03-08T04:13:42;7.20;;;3.85;;
13356;SDS011;6747;56.456;-3.120;2024-03-08T04:16:09;7.22;;;4.75;;
13356;SDS011;6747;56.456;-3.120;2024-03-08T04:18:36;9.45;;;4.13;;
13356;SDS011;6747;56.456;-3.120;2024-03-08T04:21:04;7.35;;;4.05;;
13356;SDS011;6747;56.456;-3.120;2024-03-08T04:23:34;7.07;;;4.25;;
13356;SDS011;6747;56.456;-3.120;2024-03-08T04:26:02;6.65;;;3.70;;
13356;SDS011;6747;56.456;-3.120;2024-03-08T04:28:30;4.90;;;3.85;;
13356;SDS011;6747;56.456;-3.120;2024-03-08T04:30:58;5.80;;;3.92;;
13356;SDS011;6747;56.456;-3.120;2024-03-08T04:33:26;7.38;;;4.35;;
13356;SDS011;6747;56.456;-3.120;2024-03-08T04:35:54;8.20;;;3.72;;
13356;SDS011;6747;56.456;-3.120;2024-03-08T04:38:21;4.65;;;2.97;;
13356;SDS011;6747;56.456;-3.120;2024-03-08T04:40:51;4.22;;;2.78;;
13356;SDS011;6747;56.456;-3.120;2024-03-08T04:43:18;4.90;;;3.28;;
13356;SDS011;6747;56.456;-3.120;2024-03-08T04:45:46;5.10;;;3.17;;
13356;SDS011;6747;56.456;-3.120;2024-03-08T04:48:14;5.55;;;3.00;;
13356;SDS011;6747;56.456;-3.120;2024-03-08T04:50:41;6.47;;;3.72;;
13356;SDS011;6747;56.456;-3.120;2024-03-08T04:53:10;7.05;;;3.45;;
13356;SDS011;6747;56.456;-3.120;2024-03-08T04:55:37;5.55;;;3.47;;
13356;SDS011;6747;56.456;-3.120;2024-03-08T04:58:06;5.43;;;3.60;;
13356;SDS011;6747;56.456;-3.120;2024-03-08T05:00:33;5.30;;;3.03;;
13356;SDS011;6747;56.456;-3.120;2024-03-08T05:03:01;5.30;;;3.55;;
13356;SDS011;6747;56.456;-3.120;2024-03-08T05:05:29;4.30;;;3.30;;
13356;SDS011;6747;56.456;-3.120;2024-03-08T05:07:58;4.43;;;3.60;;
13356;SDS011;6747;56.456;-3.120;2024-03-08T05:10:26;7.53;;;3.67;;
13356;SDS011;6747;56.456;-3.120;2024-03-08T05:12:54;6.15;;;3.50;;
13356;SDS011;6747;56.456;-3.120;2024-03-08T05:15:23;8.00;;;4.00;;
13356;SDS011;6747;56.456;-3.120;2024-03-08T05:17:50;3.90;;;3.40;;
13356;SDS011;6747;56.456;-3.120;2024-03-08T05:20:18;10.60;;;3.58;;
13356;SDS011;6747;56.456;-3.120;2024-03-08T05:22:47;7.85;;;3.47;;
13356;SDS011;6747;56.456;-3.120;2024-03-08T05:25:14;5.43;;;3.38;;
13356;SDS011;6747;56.456;-3.120;2024-03-08T05:27:43;7.20;;;3.22;;
13356;SDS011;6747;56.456;-3.120;2024-03-08T05:30:10;5.75;;;3.38;;
13356;SDS011;6747;56.456;-3.120;2024-03-08T05:32:41;7.18;;;3.38;;
13356;SDS011;6747;56.456;-3.120;2024-03-08T05:35:09;5.03;;;3.50;;
13356;SDS011;6747;56.456;-3.120;2024-03-08T05:37:37;5.35;;;3.67;;
13356;SDS011;6747;56.456;-3.120;2024-03-08T05:40:05;8.77;;;3.42;;
13356;SDS011;6747;56.456;-3.120;2024-03-08T05:42:34;6.65;;;4.10;;
13356;SDS011;6747;56.456;-3.120;2024-03-08T05:45:02;6.78;;;3.83;;
13356;SDS011;6747;56.456;-3.120;2024-03-08T05:47:31;5.88;;;3.55;;
13356;SDS011;6747;56.456;-3.120;2024-03-08T05:50:00;8.10;;;3.97;;
13356;SDS011;6747;56.456;-3.120;2024-03-08T05:52:28;8.90;;;3.67;;
13356;SDS011;6747;56.456;-3.120;2024-03-08T05:54:55;11.30;;;4.05;;
13356;SDS011;6747;56.456;-3.120;2024-03-08T05:57:23;7.65;;;4.28;;
13356;SDS011;6747;56.456;-3.120;2024-03-08T05:59:50;9.57;;;4.43;;
13356;SDS011;6747;56.456;-3.120;2024-03-08T06:02:18;8.07;;;3.90;;
13356;SDS011;6747;56.456;-3.120;2024-03-08T06:04:45;5.82;;;3.50;;
13356;SDS011;6747;56.456;-3.120;2024-03-08T06:07:14;8.18;;;4.13;;
13356;SDS011;6747;56.456;-3.120;2024-03-08T06:09:42;6.93;;;3.45;;
13356;SDS011;6747;56.456;-3.120;2024-03-08T06:12:11;7.38;;;3.70;;
13356;SDS011;6747;56.456;-3.120;2024-03-08T06:14:43;6.32;;;3.97;;
13356;SDS011;6747;56.456;-3.120;2024-03-08T06:17:11;8.32;;;3.85;;
13356;SDS011;6747;56.456;-3.120;2024-03-08T06:19:38;7.10;;;3.85;;
13356;SDS011;6747;56.456;-3.120;2024-03-08T06:22:06;6.43;;;3.70;;
13356;SDS011;6747;56.456;-3.120;2024-03-08T06:24:36;9.15;;;3.83;;
13356;SDS011;6747;56.456;-3.120;2024-03-08T06:27:03;7.32;;;4.15;;
13356;SDS011;6747;56.456;-3.120;2024-03-08T06:29:31;6.72;;;3.70;;
13356;SDS011;6747;56.456;-3.120;2024-03-08T06:31:58;7.38;;;3.60;;
13356;SDS011;6747;56.456;-3.120;2024-03-08T06:34:26;4.60;;;3.60;;
13356;SDS011;6747;56.456;-3.120;2024-03-08T06:36:53;9.07;;;3.55;;
13356;SDS011;6747;56.456;-3.120;2024-03-08T06:39:26;7.78;;;4.07;;
13356;SDS011;6747;56.456;-3.120;2024-03-08T06:41:56;8.13;;;3.63;;
13356;SDS011;6747;56.456;-3.120;2024-03-08T06:44:25;8.23;;;3.92;;
13356;SDS011;6747;56.456;-3.120;2024-03-08T06:46:53;6.10;;;3.75;;
13356;SDS011;6747;56.456;-3.120;2024-03-08T06:49:20;8.02;;;3.53;;
13356;SDS011;6747;56.456;-3.120;2024-03-08T06:51:47;6.68;;;3.45;;
13356;SDS011;6747;56.456;-3.120;2024-03-08T06:54:15;7.65;;;4.25;;
13356;SDS011;6747;56.456;-3.120;2024-03-08T06:56:42;7.80;;;3.60;;
13356;SDS011;6747;56.456;-3.120;2024-03-08T06:59:11;8.32;;;4.60;;
13356;SDS011;6747;56.456;-3.120;2024-03-08T07:01:39;6.70;;;3.55;;
13356;SDS011;6747;56.456;-3.120;2024-03-08T07:04:06;12.48;;;4.47;;
13356;SDS011;6747;56.456;-3.120;2024-03-08T07:06:33;9.20;;;3.70;;
13356;SDS011;6747;56.456;-3.120;2024-03-08T07:09:02;6.95;;;3.50;;
13356;SDS011;6747;56.456;-3.120;2024-03-08T07:11:29;5.78;;;3.85;;
13356;SDS011;6747;56.456;-3.120;2024-03-08T07:13:56;9.23;;;4.22;;
13356;SDS011;6747;56.456;-3.120;2024-03-08T07:16:29;7.35;;;3.88;;
13356;SDS011;6747;56.456;-3.120;2024-03-08T07:18:57;10.15;;;4.10;;
13356;SDS011;6747;56.456;-3.120;2024-03-08T07:21:24;8.27;;;3.92;;
13356;SDS011;6747;56.456;-3.120;2024-03-08T07:23:52;7.38;;;3.47;;
13356;SDS011;6747;56.456;-3.120;2024-03-08T07:26:31;9.10;;;4.20;;
13356;SDS011;6747;56.456;-3.120;2024-03-08T07:28:59;9.80;;;3.75;;
13356;SDS011;6747;56.456;-3.120;2024-03-08T07:31:26;7.85;;;3.97;;
13356;SDS011;6747;56.456;-3.120;2024-03-08T07:34:04;6.68;;;3.60;;
13356;SDS011;6747;56.456;-3.120;2024-03-08T07:36:32;7.82;;;4.10;;
13356;SDS011;6747;56.456;-3.120;2024-03-08T07:39:00;8.85;;;3.83;;
13356;SDS011;6747;56.456;-3.120;2024-03-08T07:41:30;7.53;;;3.97;;
13356;SDS011;6747;56.456;-3.120;2024-03-08T07:44:01;5.80;;;3.78;;
13356;SDS011;6747;56.456;-3.120;2024-03-08T07:46:29;6.45;;;3.30;;
13356;SDS011;6747;56.456;-3.120;2024-03-08T07:48:56;9.70;;;3.88;;
13356;SDS011;6747;56.456;-3.120;2024-03-08T07:51:25;7.38;;;4.20;;
13356;SDS011;6747;56.456;-3.120;2024-03-08T07:53:53;7.15;;;3.35;;
13356;SDS011;6747;56.456;-3.120;2024-03-08T07:56:21;8.60;;;3.58;;
13356;SDS011;6747;56.456;-3.120;2024-03-08T07:58:49;10.60;;;3.25;;
13356;SDS011;6747;56.456;-3.120;2024-03-08T08:01:16;10.35;;;4.53;;
13356;SDS011;6747;56.456;-3.120;2024-03-08T08:03:44;5.45;;;3.35;;
13356;SDS011;6747;56.456;-3.120;2024-03-08T08:06:14;8.18;;;3.50;;
13356;SDS011;6747;56.456;-3.120;2024-03-08T08:08:43;8.70;;;4.15;;
13356;SDS011;6747;56.456;-3.120;2024-03-08T08:11:10;7.80;;;3.83;;
13356;SDS011;6747;56.456;-3.120;2024-03-08T08:13:38;8.98;;;3.75;;
13356;SDS011;6747;56.456;-3.120;2024-03-08T08:16:08;11.50;;;3.75;;
13356;SDS011;6747;56.456;-3.120;2024-03-08T08:18:36;5.22;;;3.65;;
13356;SDS011;6747;56.456;-3.120;2024-03-08T08:21:04;8.77;;;3.38;;
13356;SDS011;6747;56.456;-3.120;2024-03-08T08:23:32;9.00;;;3.65;;
13356;SDS011;6747;56.456;-3.120;2024-03-08T08:26:01;7.60;;;3.67;;
13356;SDS011;6747;56.456;-3.120;2024-03-08T08:28:29;11.43;;;3.72;;
13356;SDS011;6747;56.456;-3.120;2024-03-08T08:30:57;6.90;;;3.50;;
13356;SDS011;6747;56.456;-3.120;2024-03-08T08:33:25;5.15;;;3.42;;
13356;SDS011;6747;56.456;-3.120;2024-03-08T08:35:52;6.03;;;3.30;;
13356;SDS011;6747;56.456;-3.120;2024-03-08T08:38:20;6.93;;;3.65;;
13356;SDS011;6747;56.456;-3.120;2024-03-08T08:40:48;6.13;;;3.40;;
13356;SDS011;6747;56.456;-3.120;2024-03-08T08:43:17;5.88;;;3.20;;
13356;SDS011;6747;56.456;-3.120;2024-03-08T08:48:49;7.07;;;3.10;;
13356;SDS011;6747;56.456;-3.120;2024-03-08T08:51:17;6.10;;;3.58;;
13356;SDS011;6747;56.456;-3.120;2024-03-08T08:53:44;6.43;;;3.30;;
13356;SDS011;6747;56.456;-3.120;2024-03-08T08:56:13;8.07;;;3.67;;
13356;SDS011;6747;56.456;-3.120;2024-03-08T08:58:42;6.00;;;3.53;;
13356;SDS011;6747;56.456;-3.120;2024-03-08T09:01:10;6.57;;;2.72;;
13356;SDS011;6747;56.456;-3.120;2024-03-08T09:03:37;5.95;;;3.10;;
13356;SDS011;6747;56.456;-3.120;2024-03-08T09:06:06;4.35;;;2.60;;
13356;SDS011;6747;56.456;-3.120;2024-03-08T09:08:35;4.40;;;3.10;;
13356;SDS011;6747;56.456;-3.120;2024-03-08T09:11:03;4.10;;;2.67;;
13356;SDS011;6747;56.456;-3.120;2024-03-08T09:13:31;5.35;;;2.85;;
13356;SDS011;6747;56.456;-3.120;2024-03-08T09:16:01;6.38;;;2.90;;
13356;SDS011;6747;56.456;-3.120;2024-03-08T09:18:30;6.78;;;2.83;;
13356;SDS011;6747;56.456;-3.120;2024-03-08T09:20:58;5.03;;;2.70;;
13356;SDS011;6747;56.456;-3.120;2024-03-08T09:23:26;3.33;;;2.70;;
13356;SDS011;6747;56.456;-3.120;2024-03-08T09:25:55;5.28;;;2.67;;
13356;SDS011;6747;56.456;-3.120;2024-03-08T09:28:23;4.90;;;2.95;;
13356;SDS011;6747;56.456;-3.120;2024-03-08T09:30:52;5.35;;;2.97;;
13356;SDS011;6747;56.456;-3.120;2024-03-08T09:33:21;3.40;;;3.10;;
13356;SDS011;6747;56.456;-3.120;2024-03-08T09:35:49;6.15;;;2.97;;
13356;SDS011;6747;56.456;-3.120;2024-03-08T09:38:18;4.15;;;3.08;;
13356;SDS011;6747;56.456;-3.120;2024-03-08T09:40:45;6.70;;;2.63;;
13356;SDS011;6747;56.456;-3.120;2024-03-08T09:43:13;4.35;;;2.70;;
13356;SDS011;6747;56.456;-3.120;2024-03-08T09:45:41;6.78;;;3.40;;
13356;SDS011;6747;56.456;-3.120;2024-03-08T09:48:10;7.97;;;3.47;;
13356;SDS011;6747;56.456;-3.120;2024-03-08T09:50:40;5.97;;;3.08;;
13356;SDS011;6747;56.456;-3.120;2024-03-08T09:53:08;7.38;;;3.33;;
13356;SDS011;6747;56.456;-3.120;2024-03-08T09:55:35;6.45;;;3.45;;
13356;SDS011;6747;56.456;-3.120;2024-03-08T09:58:07;4.45;;;3.10;;
13356;SDS011;6747;56.456;-3.120;2024-03-08T10:01:01;8.88;;;3.38;;
13356;SDS011;6747;56.456;-3.120;2024-03-08T10:03:29;4.30;;;3.10;;
13356;SDS011;6747;56.456;-3.120;2024-03-08T10:06:00;9.80;;;3.63;;
13356;SDS011;6747;56.456;-3.120;2024-03-08T10:08:27;8.25;;;3.50;;
13356;SDS011;6747;56.456;-3.120;2024-03-08T10:10:55;6.00;;;3.90;;
13356;SDS011;6747;56.456;-3.120;2024-03-08T10:13:23;5.70;;;3.15;;
13356;SDS011;6747;56.456;-3.120;2024-03-08T10:15:53;6.40;;;3.60;;
13356;SDS011;6747;56.456;-3.120;2024-03-08T10:18:20;4.90;;;3.45;;
13356;SDS011;6747;56.456;-3.120;2024-03-08T10:21:02;4.95;;;3.15;;
13356;SDS011;6747;56.456;-3.120;2024-03-08T10:23:30;6.72;;;3.60;;
13356;SDS011;6747;56.456;-3.120;2024-03-08T10:26:09;3.97;;;3.55;;
13356;SDS011;6747;56.456;-3.120;2024-03-08T10:28:36;7.45;;;3.72;;
13356;SDS011;6747;56.456;-3.120;2024-03-08T10:31:04;6.18;;;3.67;;
13356;SDS011;6747;56.456;-3.120;2024-03-08T10:33:32;9.43;;;3.67;;
13356;SDS011;6747;56.456;-3.120;2024-03-08T10:35:59;4.72;;;4.20;;
13356;SDS011;6747;56.456;-3.120;2024-03-08T10:38:29;6.20;;;3.90;;
13356;SDS011;6747;56.456;-3.120;2024-03-08T10:40:59;7.90;;;4.60;;
13356;SDS011;6747;56.456;-3.120;2024-03-08T10:43:27;10.05;;;4.88;;
13356;SDS011;6747;56.456;-3.120;2024-03-08T10:45:58;11.98;;;5.25;;
13356;SDS011;6747;56.456;-3.120;2024-03-08T10:48:28;10.82;;;5.30;;
13356;SDS011;6747;56.456;-3.120;2024-03-08T10:50:58;9.63;;;5.30;;
13356;SDS011;6747;56.456;-3.120;2024-03-08T10:53:26;9.93;;;5.78;;
13356;SDS011;6747;56.456;-3.120;2024-03-08T10:55:58;10.68;;;6.80;;
13356;SDS011;6747;56.456;-3.120;2024-03-08T10:58:29;10.68;;;6.38;;
13356;SDS011;6747;56.456;-3.120;2024-03-08T11:00:57;10.10;;;6.25;;
13356;SDS011;6747;56.456;-3.120;2024-03-08T11:06:13;11.30;;;6.35;;
13356;SDS011;6747;56.456;-3.120;2024-03-08T11:08:41;10.25;;;6.35;;
13356;SDS011;6747;56.456;-3.120;2024-03-08T11:13:56;11.90;;;6.57;;
13356;SDS011;6747;56.456;-3.120;2024-03-08T11:16:37;11.23;;;5.97;;
13356;SDS011;6747;56.456;-3.120;2024-03-08T11:19:22;11.93;;;6.72;;
13356;SDS011;6747;56.456;-3.120;2024-03-08T11:21:56;11.75;;;6.75;;
13356;SDS011;6747;56.456;-3.120;2024-03-08T11:24:24;11.23;;;7.13;;
13356;SDS011;6747;56.456;-3.120;2024-03-08T11:26:54;13.85;;;6.90;;
13356;SDS011;6747;56.456;-3.120;2024-03-08T11:29:36;14.32;;;7.60;;
13356;SDS011;6747;56.456;-3.120;2024-03-08T11:32:06;13.85;;;7.20;;
13356;SDS011;6747;56.456;-3.120;2024-03-08T11:34:33;15.75;;;8.07;;
13356;SDS011;6747;56.456;-3.120;2024-03-08T11:37:01;18.27;;;9.73;;
13356;SDS011;6747;56.456;-3.120;2024-03-08T11:39:31;16.70;;;8.52;;
13356;SDS011;6747;56.456;-3.120;2024-03-08T11:41:58;16.65;;;8.63;;
13356;SDS011;6747;56.456;-3.120;2024-03-08T11:44:26;15.63;;;8.75;;
13356;SDS011;6747;56.456;-3.120;2024-03-08T11:46:58;15.20;;;8.60;;
13356;SDS011;6747;56.456;-3.120;2024-03-08T11:49:25;14.55;;;8.77;;
13356;SDS011;6747;56.456;-3.120;2024-03-08T11:51:53;14.35;;;9.10;;
13356;SDS011;6747;56.456;-3.120;2024-03-08T11:54:21;16.35;;;9.40;;
13356;SDS011;6747;56.456;-3.120;2024-03-08T11:56:51;17.17;;;9.77;;
13356;SDS011;6747;56.456;-3.120;2024-03-08T11:59:20;17.45;;;9.93;;
13356;SDS011;6747;56.456;-3.120;2024-03-08T12:02:02;16.48;;;9.90;;
13356;SDS011;6747;56.456;-3.120;2024-03-08T12:04:30;15.68;;;9.77;;
13356;SDS011;6747;56.456;-3.120;2024-03-08T12:06:59;17.73;;;10.18;;
13356;SDS011;6747;56.456;-3.120;2024-03-08T12:09:33;19.10;;;9.88;;
13356;SDS011;6747;56.456;-3.120;2024-03-08T12:12:02;18.00;;;10.30;;
13356;SDS011;6747;56.456;-3.120;2024-03-08T12:14:29;18.05;;;10.85;;
13356;SDS011;6747;56.456;-3.120;2024-03-08T12:16:58;16.08;;;10.32;;
13356;SDS011;6747;56.456;-3.120;2024-03-08T12:19:27;16.20;;;10.65;;
13356;SDS011;6747;56.456;-3.120;2024-03-08T12:21:55;18.27;;;10.25;;
13356;SDS011;6747;56.456;-3.120;2024-03-08T12:24:22;18.88;;;10.25;;
13356;SDS011;6747;56.456;-3.120;2024-03-08T12:26:52;15.18;;;10.32;;
13356;SDS011;6747;56.456;-3.120;2024-03-08T12:29:23;15.93;;;10.00;;
13356;SDS011;6747;56.456;-3.120;2024-03-08T12:31:53;18.63;;;10.38;;
13356;SDS011;6747;56.456;-3.120;2024-03-08T12:34:20;17.30;;;10.57;;
13356;SDS011;6747;56.456;-3.120;2024-03-08T12:36:49;16.92;;;10.63;;
13356;SDS011;6747;56.456;-3.120;2024-03-08T12:39:18;15.82;;;10.23;;
13356;SDS011;6747;56.456;-3.120;2024-03-08T12:41:52;23.35;;;10.95;;
13356;SDS011;6747;56.456;-3.120;2024-03-08T12:44:19;17.60;;;10.02;;
13356;SDS011;6747;56.456;-3.120;2024-03-08T12:46:47;19.08;;;10.25;;
13356;SDS011;6747;56.456;-3.120;2024-03-08T12:49:19;20.65;;;11.23;;
13356;SDS011;6747;56.456;-3.120;2024-03-08T12:51:47;22.15;;;11.57;;
13356;SDS011;6747;56.456;-3.120;2024-03-08T12:54:18;21.90;;;11.02;;
13356;SDS011;6747;56.456;-3.120;2024-03-08T12:56:48;19.98;;;10.88;;
13356;SDS011;6747;56.456;-3.120;2024-03-08T12:59:18;17.67;;;10.57;;
13356;SDS011;6747;56.456;-3.120;2024-03-08T13:01:49;19.63;;;11.43;;
13356;SDS011;6747;56.456;-3.120;2024-03-08T13:04:18;19.45;;;10.75;;
13356;SDS011;6747;56.456;-3.120;2024-03-08T13:06:46;23.10;;;11.18;;
13356;SDS011;6747;56.456;-3.120;2024-03-08T13:09:16;19.05;;;11.27;;
13356;SDS011;6747;56.456;-3.120;2024-03-08T13:11:49;18.05;;;11.32;;
13356;SDS011;6747;56.456;-3.120;2024-03-08T13:14:16;18.88;;;12.18;;
13356;SDS011;6747;56.456;-3.120;2024-03-08T13:16:49;18.35;;;11.38;;
13356;SDS011;6747;56.456;-3.120;2024-03-08T13:19:17;17.20;;;11.15;;
13356;SDS011;6747;56.456;-3.120;2024-03-08T13:21:50;16.23;;;11.40;;
13356;SDS011;6747;56.456;-3.120;2024-03-08T13:24:21;21.45;;;12.02;;
13356;SDS011;6747;56.456;-3.120;2024-03-08T13:26:51;19.85;;;11.30;;
13356;SDS011;6747;56.456;-3.120;2024-03-08T13:29:21;20.00;;;11.32;;
13356;SDS011;6747;56.456;-3.120;2024-03-08T13:31:51;25.02;;;12.32;;
13356;SDS011;6747;56.456;-3.120;2024-03-08T13:34:21;20.00;;;12.13;;
13356;SDS011;6747;56.456;-3.120;2024-03-08T13:36:54;18.65;;;11.90;;
13356;SDS011;6747;56.456;-3.120;2024-03-08T13:39:25;18.70;;;11.05;;
13356;SDS011;6747;56.456;-3.120;2024-03-08T13:41:55;17.42;;;11.10;;
13356;SDS011;6747;56.456;-3.120;2024-03-08T13:44:23;19.02;;;12.25;;
13356;SDS011;6747;56.456;-3.120;2024-03-08T13:46:51;21.75;;;12.07;;
13356;SDS011;6747;56.456;-3.120;2024-03-08T13:49:18;19.20;;;10.20;;
13356;SDS011;6747;56.456;-3.120;2024-03-08T13:51:51;22.63;;;12.57;;
13356;SDS011;6747;56.456;-3.120;2024-03-08T13:54:22;17.85;;;11.65;;
13356;SDS011;6747;56.456;-3.120;2024-03-08T13:57:00;18.27;;;12.75;;
13356;SDS011;6747;56.456;-3.120;2024-03-08T13:59:31;20.67;;;13.35;;
13356;SDS011;6747;56.456;-3.120;2024-03-08T14:02:00;23.65;;;14.52;;
13356;SDS011;6747;56.456;-3.120;2024-03-08T14:04:28;31.05;;;15.70;;
13356;SDS011;6747;56.456;-3.120;2024-03-08T14:06:55;24.33;;;14.50;;
13356;SDS011;6747;56.456;-3.120;2024-03-08T14:09:28;22.63;;;14.63;;
13356;SDS011;6747;56.456;-3.120;2024-03-08T14:11:56;23.58;;;13.60;;
13356;SDS011;6747;56.456;-3.120;2024-03-08T14:14:26;25.70;;;14.40;;
13356;SDS011;6747;56.456;-3.120;2024-03-08T14:16:53;24.65;;;14.93;;
13356;SDS011;6747;56.456;-3.120;2024-03-08T14:19:23;25.33;;;14.38;;
13356;SDS011;6747;56.456;-3.120;2024-03-08T14:21:51;24.33;;;13.68;;
13356;SDS011;6747;56.456;-3.120;2024-03-08T14:24:24;25.50;;;14.75;;
13356;SDS011;6747;56.456;-3.120;2024-03-08T14:26:55;23.10;;;13.73;;
13356;SDS011;6747;56.456;-3.120;2024-03-08T14:29:24;19.75;;;13.90;;
13356;SDS011;6747;56.456;-3.120;2024-03-08T14:31:56;21.35;;;13.38;;
13356;SDS011;6747;56.456;-3.120;2024-03-08T14:34:24;21.70;;;13.75;;
13356;SDS011;6747;56.456;-3.120;2024-03-08T14:36:54;26.75;;;14.32;;
13356;SDS011;6747;56.456;-3.120;2024-03-08T14:39:22;21.83;;;14.18;;
13356;SDS011;6747;56.456;-3.120;2024-03-08T14:41:51;24.20;;;14.35;;
13356;SDS011;6747;56.456;-3.120;2024-03-08T14:44:23;20.90;;;13.75;;
13356;SDS011;6747;56.456;-3.120;2024-03-08T14:46:51;19.85;;;13.45;;
13356;SDS011;6747;56.456;-3.120;2024-03-08T14:49:20;23.38;;;13.40;;
13356;SDS011;6747;56.456;-3.120;2024-03-08T14:51:48;19.85;;;13.52;;
13356;SDS011;6747;56.456;-3.120;2024-03-08T14:54:16;29.52;;;14.82;;
13356;SDS011;6747;56.456;-3.120;2024-03-08T14:56:46;24.52;;;14.63;;
13356;SDS011;6747;56.456;-3.120;2024-03-08T14:59:14;19.88;;;12.93;;